createdAt,value
2019-02-26T00:01:21.622Z,9.17
2019-02-26T00:03:52.888Z,8.93
2019-02-26T00:06:25.373Z,9.00
2019-02-26T00:08:56.610Z,8.90
2019-02-26T00:11:29.041Z,9.00
2019-02-26T00:13:59.975Z,9.23
2019-02-26T00:16:35.243Z,8.33
2019-02-26T00:19:04.640Z,10.10
2019-02-26T00:21:34.808Z,8.13
2019-02-26T00:24:07.133Z,9.17
2019-02-26T00:26:38.449Z,8.00
2019-02-26T00:29:09.619Z,8.63
2019-02-26T00:31:40.098Z,8.33
2019-02-26T00:34:15.987Z,8.27
2019-02-26T00:36:45.792Z,8.73
2019-02-26T00:39:16.291Z,8.70
2019-02-26T00:41:49.361Z,9.23
2019-02-26T00:44:21.193Z,9.80
2019-02-26T00:46:53.432Z,9.63
2019-02-26T00:49:23.702Z,9.50
2019-02-26T00:51:55.528Z,9.63
2019-02-26T00:54:26.754Z,10.50
2019-02-26T00:57:01.077Z,9.83
2019-02-26T00:59:30.357Z,10.73
2019-02-26T01:02:00.814Z,9.80
2019-02-26T01:04:31.324Z,10.53
2019-02-26T01:07:03.682Z,9.53
2019-02-26T01:09:34.136Z,9.67
2019-02-26T01:12:06.515Z,9.03
2019-02-26T01:14:36.923Z,9.20
2019-02-26T01:17:08.203Z,9.50
2019-02-26T01:19:40.726Z,9.13
2019-02-26T01:22:11.769Z,8.33
2019-02-26T01:24:42.211Z,7.97
2019-02-26T01:27:12.673Z,8.20
2019-02-26T01:29:44.529Z,8.87
2019-02-26T01:32:16.079Z,8.57
2019-02-26T01:34:49.465Z,9.87
2019-02-26T01:37:19.621Z,10.53
2019-02-26T01:39:51.736Z,12.23
2019-02-26T01:42:24.760Z,11.53
2019-02-26T01:44:54.594Z,10.97
2019-02-26T01:47:26.292Z,10.47
2019-02-26T01:49:59.321Z,10.37
2019-02-26T01:52:29.453Z,8.10
2019-02-26T01:55:00.785Z,7.00
2019-02-26T01:57:32.085Z,8.27
2019-02-26T02:00:06.444Z,7.20
2019-02-26T02:02:34.734Z,7.00
2019-02-26T02:05:07.118Z,7.60
2019-02-26T02:07:37.735Z,7.00
2019-02-26T02:10:08.789Z,7.27
2019-02-26T02:12:41.396Z,7.33
2019-02-26T02:15:12.351Z,6.43
2019-02-26T02:17:44.214Z,6.50
2019-02-26T02:20:20.763Z,6.60
2019-02-26T02:22:48.536Z,6.80
2019-02-26T02:25:18.991Z,6.47
2019-02-26T02:27:51.889Z,8.30
2019-02-26T02:30:26.687Z,7.43
2019-02-26T02:32:56.859Z,6.47
2019-02-26T02:35:26.012Z,7.03
2019-02-26T02:37:59.563Z,8.93
2019-02-26T02:40:28.712Z,7.43
2019-02-26T02:43:04.143Z,7.20
2019-02-26T02:45:31.481Z,8.13
2019-02-26T02:48:03.248Z,7.97
2019-02-26T02:50:34.142Z,8.13
2019-02-26T02:53:04.627Z,8.23
2019-02-26T02:55:35.073Z,8.10
2019-02-26T02:58:05.667Z,8.90
2019-02-26T03:00:36.120Z,7.33
2019-02-26T03:03:06.623Z,8.13
2019-02-26T03:05:40.400Z,7.27
2019-02-26T03:08:10.763Z,6.00
2019-02-26T03:10:43.044Z,7.50
2019-02-26T03:13:14.415Z,9.40
2019-02-26T03:15:47.600Z,7.27
2019-02-26T03:18:18.007Z,8.90
2019-02-26T03:20:48.470Z,8.53
2019-02-26T03:23:21.230Z,8.20
2019-02-26T03:25:52.904Z,9.03
2019-02-26T03:28:23.909Z,8.77
2019-02-26T03:30:54.381Z,9.80
2019-02-26T03:33:24.896Z,12.13
2019-02-26T03:35:55.411Z,7.83
2019-02-26T03:38:26.990Z,8.40
2019-02-26T03:40:59.132Z,8.57
2019-02-26T03:43:31.413Z,11.63
2019-02-26T03:46:02.381Z,7.67
2019-02-26T03:48:32.864Z,8.53
2019-02-26T03:51:03.323Z,9.13
2019-02-26T03:53:36.177Z,9.30
2019-02-26T03:56:08.200Z,8.80
2019-02-26T03:58:38.468Z,9.73
2019-02-26T04:01:10.930Z,8.73
2019-02-26T04:03:42.530Z,8.47
2019-02-26T04:06:13.316Z,12.40
2019-02-26T04:08:46.170Z,12.83
2019-02-26T04:11:16.814Z,12.07
2019-02-26T04:13:49.487Z,12.57
2019-02-26T04:16:20.597Z,10.90
2019-02-26T04:18:51.964Z,8.80
2019-02-26T04:21:22.513Z,9.97
2019-02-26T04:23:53.479Z,10.63
2019-02-26T04:26:49.836Z,9.37
2019-02-26T04:29:49.219Z,12.73
2019-02-26T04:32:51.853Z,12.13
2019-02-26T04:35:47.861Z,10.77
2019-02-26T04:38:58.346Z,13.40
2019-02-26T04:41:52.491Z,9.10
2019-02-26T04:44:52.001Z,9.53
2019-02-26T04:47:27.544Z,9.03
2019-02-26T04:50:00.533Z,13.90
2019-02-26T04:52:32.293Z,9.00
2019-02-26T04:55:03.576Z,8.67
2019-02-26T04:57:34.373Z,9.03
2019-02-26T05:00:07.919Z,10.73
2019-02-26T05:02:37.995Z,8.47
2019-02-26T05:05:08.722Z,10.07
2019-02-26T05:07:42.297Z,10.30
2019-02-26T05:10:11.549Z,19.07
2019-02-26T05:12:42.057Z,9.50
2019-02-26T05:15:16.879Z,9.33
2019-02-26T05:17:44.816Z,13.30
2019-02-26T05:20:16.766Z,13.60
2019-02-26T05:22:47.471Z,11.83
2019-02-26T05:25:19.800Z,12.60
2019-02-26T05:27:50.993Z,15.10
2019-02-26T05:30:22.431Z,12.57
2019-02-26T05:32:54.865Z,20.57
2019-02-26T05:35:25.425Z,18.57
2019-02-26T05:37:58.325Z,15.07
2019-02-26T05:40:28.139Z,14.70
2019-02-26T05:42:59.314Z,11.90
2019-02-26T05:45:33.050Z,23.50
2019-02-26T05:48:03.140Z,11.50
2019-02-26T05:50:35.617Z,11.67
2019-02-26T05:53:07.572Z,12.70
2019-02-26T05:55:38.206Z,13.97
2019-02-26T05:58:10.063Z,14.57
2019-02-26T06:00:41.613Z,12.80
2019-02-26T06:03:12.828Z,11.50
2019-02-26T06:05:46.584Z,10.20
2019-02-26T06:08:16.576Z,11.80
2019-02-26T06:10:47.080Z,23.43
2019-02-26T06:13:17.593Z,28.97
2019-02-26T06:15:48.261Z,15.60
2019-02-26T06:18:20.932Z,12.37
2019-02-26T06:20:53.399Z,10.43
2019-02-26T06:23:25.304Z,12.80
2019-02-26T06:25:57.780Z,15.27
2019-02-26T06:28:27.574Z,13.73
2019-02-26T06:30:58.060Z,11.23
2019-02-26T06:33:31.888Z,12.77
2019-02-26T06:36:01.657Z,11.27
2019-02-26T06:38:34.963Z,10.80
2019-02-26T06:41:05.481Z,15.53
2019-02-26T06:43:39.527Z,10.63
2019-02-26T06:46:10.572Z,11.03
2019-02-26T06:48:40.365Z,13.83
2019-02-26T06:51:10.876Z,12.33
2019-02-26T06:53:45.022Z,12.50
2019-02-26T06:56:15.996Z,15.47
2019-02-26T06:58:47.425Z,17.83
2019-02-26T07:01:18.881Z,14.77
2019-02-26T07:03:49.427Z,15.37
2019-02-26T07:06:22.802Z,15.40
2019-02-26T07:08:53.485Z,16.13
2019-02-26T07:11:26.246Z,16.07
2019-02-26T07:13:58.325Z,20.63
2019-02-26T07:16:28.413Z,17.30
2019-02-26T07:18:59.014Z,29.13
2019-02-26T07:21:31.119Z,25.37
2019-02-26T07:24:03.422Z,15.20
2019-02-26T07:26:33.947Z,25.47
2019-02-26T07:29:05.838Z,37.60
2019-02-26T07:31:36.984Z,29.57
2019-02-26T07:34:09.224Z,17.80
2019-02-26T07:36:41.161Z,14.33
2019-02-26T07:39:12.952Z,14.80
2019-02-26T07:41:45.278Z,20.07
2019-02-26T07:44:18.740Z,13.93
2019-02-26T07:46:48.666Z,26.70
2019-02-26T07:49:19.984Z,13.83
2019-02-26T07:51:50.582Z,19.87
2019-02-26T07:54:21.103Z,14.20
2019-02-26T07:56:52.470Z,15.50
2019-02-26T07:59:27.680Z,16.77
2019-02-26T08:01:56.116Z,14.83
2019-02-26T08:04:26.708Z,17.27
2019-02-26T08:06:59.217Z,15.73
2019-02-26T08:09:29.583Z,21.70
2019-02-26T08:12:01.903Z,15.73
2019-02-26T08:14:32.323Z,14.63
2019-02-26T08:17:04.020Z,17.33
2019-02-26T08:19:37.609Z,14.60
2019-02-26T08:22:07.274Z,14.77
2019-02-26T08:24:38.949Z,26.77
2019-02-26T08:27:11.602Z,22.83
2019-02-26T08:29:41.870Z,18.70
2019-02-26T08:32:18.145Z,20.23
2019-02-26T08:34:46.317Z,20.40
2019-02-26T08:37:16.885Z,17.17
2019-02-26T08:39:47.410Z,18.33
2019-02-26T08:42:22.873Z,26.60
2019-02-26T08:44:54.261Z,18.05
2019-02-26T08:47:25.550Z,15.00
2019-02-26T08:49:56.013Z,13.80
2019-02-26T08:52:28.855Z,23.50
2019-02-26T08:55:01.476Z,21.40
2019-02-26T08:57:31.941Z,16.57
2019-02-26T09:00:02.533Z,17.90
2019-02-26T09:02:33.014Z,36.83
2019-02-26T09:05:04.991Z,22.67
2019-02-26T09:07:39.832Z,15.23
2019-02-26T09:10:17.904Z,13.67
2019-02-26T09:12:50.982Z,23.97
2019-02-26T09:15:20.692Z,16.80
2019-02-26T09:17:53.024Z,17.20
2019-02-26T09:20:26.817Z,14.33
2019-02-26T09:22:59.507Z,19.77
2019-02-26T09:25:31.477Z,14.23
2019-02-26T09:28:04.907Z,16.57
2019-02-26T09:30:35.829Z,14.70
2019-02-26T09:33:09.051Z,13.90
2019-02-26T09:35:40.890Z,14.73
2019-02-26T09:38:12.359Z,19.67
2019-02-26T09:40:45.173Z,19.03
2019-02-26T09:43:19.684Z,16.17
2019-02-26T09:45:52.791Z,15.10
2019-02-26T09:48:23.004Z,13.63
2019-02-26T09:50:53.519Z,16.40
2019-02-26T09:53:24.273Z,20.70
2019-02-26T09:55:54.822Z,13.70
2019-02-26T09:58:27.177Z,18.40
2019-02-26T10:01:17.577Z,14.90
2019-02-26T10:03:47.584Z,12.57
2019-02-26T10:06:19.327Z,12.50
2019-02-26T10:08:51.330Z,11.53
2019-02-26T10:11:23.163Z,13.00
2019-02-26T10:13:54.752Z,14.30
2019-02-26T10:16:31.358Z,12.50
2019-02-26T10:19:01.138Z,20.57
2019-02-26T10:21:34.773Z,20.93
2019-02-26T10:24:09.085Z,12.73
2019-02-26T10:26:41.463Z,17.13
2019-02-26T10:29:11.791Z,13.07
2019-02-26T10:31:42.279Z,13.27
2019-02-26T10:34:15.672Z,20.60
2019-02-26T10:36:47.205Z,16.50
2019-02-26T10:39:20.691Z,19.20
2019-02-26T10:41:50.891Z,13.80
2019-02-26T10:44:23.664Z,13.17
2019-02-26T10:46:54.129Z,14.37
2019-02-26T10:49:24.693Z,15.80
2019-02-26T10:51:57.746Z,14.40
2019-02-26T10:54:31.484Z,12.70
2019-02-26T10:57:04.554Z,18.27
2019-02-26T10:59:33.568Z,12.80
2019-02-26T11:02:04.122Z,13.67
2019-02-26T11:04:41.005Z,22.63
2019-02-26T11:07:11.519Z,17.37
2019-02-26T11:09:44.817Z,24.87
2019-02-26T11:12:15.463Z,12.90
2019-02-26T11:14:46.001Z,13.67
2019-02-26T11:17:17.873Z,14.80
2019-02-26T11:19:48.713Z,13.07
2019-02-26T11:22:21.311Z,14.47
2019-02-26T11:24:53.384Z,14.63
2019-02-26T11:27:23.644Z,19.70
2019-02-26T11:29:54.661Z,20.90
2019-02-26T11:32:27.811Z,13.30
2019-02-26T11:35:01.815Z,19.37
2019-02-26T11:37:32.090Z,12.47
2019-02-26T11:40:03.637Z,16.77
2019-02-26T11:42:34.844Z,26.07
2019-02-26T11:45:08.869Z,21.47
2019-02-26T11:47:39.164Z,23.30
2019-02-26T11:50:12.998Z,17.40
2019-02-26T11:52:43.778Z,19.77
2019-02-26T11:55:14.726Z,19.93
2019-02-26T11:57:47.387Z,13.77
2019-02-26T12:00:31.338Z,18.27
2019-02-26T12:02:59.965Z,12.77
2019-02-26T12:05:33.542Z,13.47
2019-02-26T12:08:02.875Z,13.57
2019-02-26T12:10:37.208Z,13.27
2019-02-26T12:13:07.522Z,24.13
2019-02-26T12:15:41.511Z,12.80
2019-02-26T12:18:12.662Z,15.17
2019-02-26T12:20:43.592Z,12.97
2019-02-26T12:23:16.913Z,11.23
2019-02-26T12:25:49.919Z,15.97
2019-02-26T12:28:20.507Z,14.43
2019-02-26T12:30:51.097Z,12.50
2019-02-26T12:33:21.652Z,14.60
2019-02-26T12:35:52.117Z,11.27
2019-02-26T12:38:22.690Z,15.63
2019-02-26T12:40:53.518Z,13.73
2019-02-26T12:43:26.950Z,11.03
2019-02-26T12:46:01.386Z,10.97
2019-02-26T12:48:36.543Z,13.13
2019-02-26T12:51:07.516Z,12.80
2019-02-26T12:56:24.176Z,10.43
2019-02-26T12:58:56.503Z,8.83
2019-02-26T13:01:27.014Z,9.67
2019-02-26T13:03:57.504Z,14.17
2019-02-26T13:06:27.966Z,10.37
2019-02-26T13:08:58.431Z,8.43
2019-02-26T13:11:30.897Z,7.90
2019-02-26T13:14:02.511Z,9.63
2019-02-26T13:16:33.036Z,9.67
2019-02-26T13:19:05.522Z,8.97
2019-02-26T13:21:36.023Z,9.53
2019-02-26T13:24:12.386Z,8.43
2019-02-26T13:26:41.826Z,17.80
2019-02-26T13:29:11.164Z,10.07
2019-02-26T13:31:50.207Z,8.87
2019-02-26T13:34:15.216Z,13.87
2019-02-26T13:36:48.992Z,9.53
2019-02-26T13:39:25.446Z,14.50
2019-02-26T13:41:54.365Z,13.00
2019-02-26T13:44:22.961Z,12.00
2019-02-26T13:46:53.545Z,12.17
2019-02-26T13:49:24.639Z,13.90
2019-02-26T13:51:55.165Z,14.03
2019-02-26T13:54:25.696Z,11.53
2019-02-26T13:56:56.205Z,14.33
2019-02-26T13:59:29.220Z,17.93
2019-02-26T14:01:59.746Z,11.67
2019-02-26T14:04:30.260Z,12.07
2019-02-26T14:07:00.784Z,9.30
2019-02-26T14:09:31.241Z,9.73
2019-02-26T14:12:04.370Z,11.23
2019-02-26T14:14:34.055Z,12.90
2019-02-26T14:17:04.628Z,17.90
2019-02-26T14:19:35.272Z,9.97
2019-02-26T14:22:05.781Z,10.87
2019-02-26T14:24:36.867Z,11.73
2019-02-26T14:27:07.399Z,9.33
2019-02-26T14:29:37.991Z,12.20
2019-02-26T14:32:08.546Z,20.97
2019-02-26T14:34:39.237Z,10.03
2019-02-26T14:37:09.698Z,11.00
2019-02-26T14:39:40.261Z,10.03
2019-02-26T14:42:10.750Z,9.83
2019-02-26T14:44:41.296Z,13.60
2019-02-26T14:47:11.958Z,8.43
2019-02-26T14:49:42.430Z,10.03
2019-02-26T14:52:12.950Z,9.87
2019-02-26T14:54:43.428Z,11.97
2019-02-26T14:57:14.279Z,9.17
2019-02-26T14:59:44.804Z,11.80
2019-02-26T15:02:15.326Z,12.27
2019-02-26T15:04:45.863Z,10.40
2019-02-26T15:07:16.500Z,9.90
2019-02-26T15:09:46.956Z,22.53
2019-02-26T15:12:17.495Z,11.67
2019-02-26T15:14:48.859Z,11.00
2019-02-26T15:17:19.357Z,10.23
2019-02-26T15:19:53.157Z,13.53
2019-02-26T15:22:22.452Z,10.67
2019-02-26T15:24:54.769Z,13.77
2019-02-26T15:27:35.890Z,12.17
2019-02-26T15:30:13.373Z,10.83
2019-02-26T15:32:46.962Z,12.03
2019-02-26T15:35:26.927Z,15.70
2019-02-26T15:38:08.178Z,11.10
2019-02-26T15:40:41.740Z,10.63
2019-02-26T15:43:12.254Z,12.50
2019-02-26T15:45:51.604Z,9.77
2019-02-26T15:48:16.805Z,11.83
2019-02-26T15:50:47.340Z,12.80
2019-02-26T15:53:17.815Z,11.93
2019-02-26T15:55:48.266Z,9.90
2019-02-26T15:58:18.860Z,11.90
2019-02-26T16:00:49.326Z,11.57
2019-02-26T16:03:21.560Z,12.40
2019-02-26T16:05:53.993Z,15.97
2019-02-26T16:08:34.424Z,13.50
2019-02-26T16:10:59.641Z,12.80
2019-02-26T16:13:30.155Z,13.00
2019-02-26T16:16:00.858Z,14.40
2019-02-26T16:18:31.322Z,13.00
2019-02-26T16:21:01.953Z,13.10
2019-02-26T16:23:32.473Z,11.47
2019-02-26T16:26:02.937Z,13.87
2019-02-26T16:28:33.478Z,13.03
2019-02-26T16:31:04.601Z,11.83
2019-02-26T16:33:35.403Z,11.70
2019-02-26T16:36:05.986Z,12.33
2019-02-26T16:38:36.603Z,13.30
2019-02-26T16:41:07.116Z,13.77
2019-02-26T16:43:37.630Z,14.33
2019-02-26T16:46:09.066Z,15.00
2019-02-26T16:48:39.684Z,15.73
2019-02-26T16:51:10.285Z,13.93
2019-02-26T16:53:40.741Z,15.37
2019-02-26T16:56:11.249Z,14.93
2019-02-26T16:58:41.710Z,15.20
2019-02-26T17:01:14.658Z,17.97
2019-02-26T17:03:45.126Z,15.13
2019-02-26T17:06:15.654Z,16.07
2019-02-26T17:08:47.327Z,14.50
2019-02-26T17:11:18.273Z,15.07
2019-02-26T17:13:48.787Z,18.20
2019-02-26T17:16:19.448Z,14.10
2019-02-26T17:18:49.969Z,15.13
2019-02-26T17:21:20.487Z,15.40
2019-02-26T17:23:51.174Z,13.93
2019-02-26T17:26:23.918Z,17.10
2019-02-26T17:28:54.435Z,16.17
2019-02-26T17:31:24.984Z,13.73
2019-02-26T17:33:55.774Z,14.20
2019-02-26T17:36:26.289Z,15.33
2019-02-26T17:38:56.748Z,15.03
2019-02-26T17:41:27.211Z,13.30
2019-02-26T17:43:59.488Z,15.00
2019-02-26T17:46:29.870Z,13.85
2019-02-26T17:49:02.683Z,14.73
2019-02-26T17:51:32.649Z,16.20
2019-02-26T17:54:04.030Z,14.57
2019-02-26T17:56:35.118Z,15.17
2019-02-26T17:59:10.996Z,14.83
2019-02-26T18:01:47.090Z,17.40
2019-02-26T18:04:17.523Z,17.60
2019-02-26T18:06:48.062Z,17.73
2019-02-26T18:09:18.612Z,16.03
2019-02-26T18:11:49.131Z,16.20
2019-02-26T18:14:22.346Z,16.77
2019-02-26T18:16:52.859Z,19.03
2019-02-26T18:19:26.176Z,19.03
2019-02-26T18:21:56.687Z,19.17
2019-02-26T18:24:27.216Z,17.57
2019-02-26T18:26:57.677Z,18.77
2019-02-26T18:29:28.187Z,17.33
2019-02-26T18:31:58.651Z,18.33
2019-02-26T18:34:29.125Z,18.83
2019-02-26T18:36:59.582Z,15.57
2019-02-26T18:39:30.084Z,17.70
2019-02-26T18:42:00.566Z,20.37
2019-02-26T18:44:31.022Z,17.57
2019-02-26T18:47:01.576Z,19.93
2019-02-26T18:49:32.082Z,18.60
2019-02-26T18:52:02.540Z,18.57
2019-02-26T18:54:32.988Z,17.93
2019-02-26T18:57:03.500Z,19.77
2019-02-26T18:59:33.956Z,18.60
2019-02-26T19:02:04.424Z,19.73
2019-02-26T19:04:34.941Z,22.20
2019-02-26T19:07:05.405Z,18.23
2019-02-26T19:09:35.928Z,17.73
2019-02-26T19:12:08.513Z,18.23
2019-02-26T19:14:42.039Z,18.73
2019-02-26T19:17:11.178Z,18.43
2019-02-26T19:19:42.026Z,16.50
2019-02-26T19:22:13.029Z,22.57
2019-02-26T19:24:43.507Z,22.83
2019-02-26T19:27:14.022Z,23.20
2019-02-26T19:29:47.164Z,20.47
2019-02-26T19:32:17.680Z,19.27
2019-02-26T19:34:48.192Z,22.63
2019-02-26T19:37:19.110Z,21.53
2019-02-26T19:39:50.875Z,18.97
2019-02-26T19:42:21.428Z,19.20
2019-02-26T19:44:51.877Z,18.10
2019-02-26T19:47:22.773Z,20.30
2019-02-26T19:49:53.749Z,17.80
2019-02-26T19:52:24.196Z,20.57
2019-02-26T19:54:54.732Z,21.63
2019-02-26T19:57:27.578Z,17.57
2019-02-26T19:59:57.354Z,16.03
2019-02-26T20:02:31.343Z,18.23
2019-02-26T20:05:02.328Z,17.97
2019-02-26T20:07:33.389Z,17.67
2019-02-26T20:10:06.020Z,17.10
2019-02-26T20:12:36.587Z,17.13
2019-02-26T20:15:09.463Z,16.47
2019-02-26T20:17:39.982Z,17.67
2019-02-26T20:20:11.708Z,18.77
2019-02-26T20:22:42.262Z,15.70
2019-02-26T20:25:14.586Z,16.60
2019-02-26T20:27:45.289Z,17.13
2019-02-26T20:30:17.663Z,16.20
2019-02-26T20:32:48.273Z,18.07
2019-02-26T20:35:18.730Z,19.17
2019-02-26T20:37:49.204Z,22.57
2019-02-26T20:40:20.099Z,22.60
2019-02-26T20:42:50.610Z,16.43
2019-02-26T20:45:22.660Z,16.97
2019-02-26T20:47:53.288Z,19.10
2019-02-26T20:50:24.076Z,16.63
2019-02-26T20:52:54.554Z,17.70
2019-02-26T20:55:25.019Z,16.03
2019-02-26T20:57:55.621Z,17.33
2019-02-26T21:00:26.096Z,17.13
2019-02-26T21:02:56.552Z,17.20
2019-02-26T21:05:27.056Z,17.33
2019-02-26T21:07:58.779Z,16.50
2019-02-26T21:10:29.480Z,17.83
2019-02-26T21:13:01.825Z,17.07
2019-02-26T21:15:32.204Z,16.37
2019-02-26T21:18:02.725Z,19.17
2019-02-26T21:20:33.187Z,17.83
2019-02-26T21:23:03.711Z,17.77
2019-02-26T21:25:34.181Z,18.40
2019-02-26T21:28:04.764Z,19.00
2019-02-26T21:30:35.270Z,19.30
2019-02-26T21:33:05.885Z,19.77
2019-02-26T21:35:39.044Z,18.23
2019-02-26T21:38:09.558Z,19.80
2019-02-26T21:40:40.016Z,19.10
2019-02-26T21:43:10.537Z,17.53
2019-02-26T21:45:41.000Z,18.50
2019-02-26T21:48:11.874Z,19.30
2019-02-26T21:50:42.336Z,19.73
2019-02-26T21:53:15.951Z,18.80
2019-02-26T21:55:45.193Z,20.93
2019-02-26T21:58:15.645Z,19.33
2019-02-26T22:00:46.146Z,20.30
2019-02-26T22:03:16.604Z,20.57
2019-02-26T22:05:47.173Z,19.27
2019-02-26T22:08:17.686Z,19.27
2019-02-26T22:10:48.141Z,20.03
2019-02-26T22:13:18.654Z,20.57
2019-02-26T22:15:49.164Z,20.00
2019-02-26T22:18:19.611Z,19.77
2019-02-26T22:20:50.124Z,21.40
2019-02-26T22:23:20.593Z,19.90
2019-02-26T22:25:52.648Z,22.17
2019-02-26T22:28:23.266Z,20.03
2019-02-26T22:30:55.910Z,21.80
2019-02-26T22:33:25.932Z,20.27
2019-02-26T22:35:56.960Z,19.13
2019-02-26T22:38:28.653Z,20.47
2019-02-26T22:40:59.956Z,19.77
2019-02-26T22:43:31.622Z,22.13
2019-02-26T22:46:02.131Z,20.53
2019-02-26T22:48:32.591Z,21.00
2019-02-26T22:51:03.109Z,23.43
2019-02-26T22:53:36.363Z,22.33
2019-02-26T22:56:05.882Z,21.00
2019-02-26T22:58:36.385Z,22.17
2019-02-26T23:01:45.113Z,21.17
2019-02-26T23:04:19.256Z,21.50
2019-02-26T23:06:48.648Z,20.93
2019-02-26T23:09:21.490Z,19.10
2019-02-26T23:11:52.039Z,22.20
2019-02-26T23:14:23.177Z,21.47
2019-02-26T23:16:53.784Z,20.00
2019-02-26T23:19:24.900Z,19.83
2019-02-26T23:21:55.416Z,22.30
2019-02-26T23:24:28.009Z,23.67
2019-02-26T23:26:58.198Z,20.83
2019-02-26T23:29:28.663Z,24.17
2019-02-26T23:31:59.365Z,25.97
2019-02-26T23:34:29.931Z,25.73
2019-02-26T23:37:00.953Z,22.60
2019-02-26T23:39:32.076Z,21.93
2019-02-26T23:42:05.840Z,22.87
2019-02-26T23:44:34.876Z,21.37
2019-02-26T23:47:05.436Z,21.57
2019-02-26T23:49:36.001Z,19.67
2019-02-26T23:52:06.456Z,21.73
2019-02-26T23:54:39.809Z,18.43
2019-02-26T23:57:09.177Z,19.80
2019-02-26T23:59:39.630Z,18.60
